createdAt,value
2022-09-24T00:01:35.310Z,10.55
2022-09-24T00:04:40.845Z,10.49
2022-09-24T00:07:47.458Z,10.41
2022-09-24T00:10:55.768Z,10.24
2022-09-24T00:14:04.282Z,10.31
2022-09-24T00:17:11.946Z,10.31
2022-09-24T00:20:17.014Z,10.35
2022-09-24T00:23:23.077Z,10.35
2022-09-24T00:26:35.769Z,10.24
2022-09-24T00:29:42.972Z,10.23
2022-09-24T00:32:48.728Z,10.21
2022-09-24T00:35:53.631Z,10.15
2022-09-24T00:39:01.973Z,10.17
2022-09-24T00:42:07.453Z,10.10
2022-09-24T00:45:13.012Z,10.05
2022-09-24T00:48:18.346Z,9.98
2022-09-24T00:51:23.279Z,9.97
2022-09-24T00:54:29.170Z,9.95
2022-09-24T00:57:35.398Z,9.96
2022-09-24T01:00:40.414Z,9.98
2022-09-24T01:03:47.703Z,9.96
2022-09-24T01:06:53.929Z,9.80
2022-09-24T01:09:53.500Z,9.76
2022-09-24T01:13:08.215Z,9.72
2022-09-24T01:16:20.495Z,9.76
2022-09-24T01:19:59.205Z,9.83
2022-09-24T01:23:48.610Z,9.80
2022-09-24T01:27:08.524Z,9.66
2022-09-24T01:30:22.913Z,9.82
2022-09-24T01:33:32.607Z,9.87
2022-09-24T01:36:38.184Z,9.79
2022-09-24T01:39:44.024Z,9.75
2022-09-24T01:42:49.124Z,9.72
2022-09-24T01:45:55.190Z,9.71
2022-09-24T01:49:01.091Z,9.72
2022-09-24T01:52:09.544Z,9.65
2022-09-24T01:55:15.908Z,9.59
2022-09-24T01:58:26.138Z,9.59
2022-09-24T02:01:33.297Z,9.64
2022-09-24T02:04:37.682Z,9.41
2022-09-24T02:07:51.026Z,9.24
2022-09-24T02:11:07.571Z,9.41
2022-09-24T02:14:27.216Z,9.38
2022-09-24T02:17:32.840Z,9.62
2022-09-24T02:20:40.207Z,9.31
2022-09-24T02:23:46.765Z,9.21
2022-09-24T02:26:53.556Z,9.16
2022-09-24T02:30:00.295Z,9.18
2022-09-24T02:33:06.982Z,9.24
2022-09-24T02:36:12.555Z,9.29
2022-09-24T02:39:18.165Z,9.32
2022-09-24T02:42:24.433Z,9.30
2022-09-24T02:45:31.184Z,9.33
2022-09-24T02:48:36.327Z,9.36
2022-09-24T02:51:42.140Z,9.44
2022-09-24T02:54:48.111Z,9.38
2022-09-24T02:57:54.580Z,9.32
2022-09-24T03:01:02.462Z,9.42
2022-09-24T03:04:09.094Z,9.52
2022-09-24T03:07:06.869Z,9.39
2022-09-24T03:10:01.507Z,9.40
2022-09-24T03:13:07.392Z,9.39
2022-09-24T03:16:13.403Z,9.37
2022-09-24T03:19:12.771Z,9.42
2022-09-24T03:22:18.528Z,9.51
2022-09-24T03:25:24.458Z,9.38
2022-09-24T03:28:29.137Z,9.52
2022-09-24T03:31:35.702Z,9.32
2022-09-24T03:34:42.176Z,9.31
2022-09-24T03:37:49.701Z,9.16
2022-09-24T03:40:54.918Z,9.30
2022-09-24T03:44:01.361Z,9.30
2022-09-24T03:47:08.965Z,9.18
2022-09-24T03:50:16.399Z,9.27
2022-09-24T03:53:22.611Z,9.41
2022-09-24T03:56:27.215Z,9.38
2022-09-24T03:59:33.410Z,9.51
2022-09-24T04:02:39.519Z,9.58
2022-09-24T04:05:45.414Z,9.76
2022-09-24T04:08:51.008Z,9.89
2022-09-24T04:11:58.747Z,9.85
2022-09-24T04:15:04.552Z,9.91
2022-09-24T04:18:12.091Z,10.02
2022-09-24T04:21:17.915Z,10.12
2022-09-24T04:24:24.170Z,10.16
2022-09-24T04:27:31.081Z,10.24
2022-09-24T04:30:37.199Z,10.37
2022-09-24T04:33:43.115Z,10.49
2022-09-24T04:36:49.643Z,10.61
2022-09-24T04:39:55.638Z,10.83
2022-09-24T04:43:01.670Z,10.98
2022-09-24T04:46:11.741Z,11.08
2022-09-24T04:49:17.198Z,11.25
2022-09-24T04:52:23.729Z,11.42
2022-09-24T04:55:29.261Z,11.61
2022-09-24T04:58:35.145Z,11.77
2022-09-24T05:01:40.579Z,11.94
2022-09-24T05:04:47.122Z,12.07
2022-09-24T05:07:53.193Z,12.21
2022-09-24T05:11:01.303Z,12.32
2022-09-24T05:14:08.029Z,12.48
2022-09-24T05:19:48.812Z,12.92
2022-09-24T05:22:59.611Z,12.94
2022-09-24T05:26:21.806Z,13.11
2022-09-24T05:29:28.056Z,13.17
2022-09-24T05:32:34.869Z,13.30
2022-09-24T05:35:40.241Z,13.58
2022-09-24T05:38:45.625Z,13.78
2022-09-24T05:41:51.671Z,13.95
2022-09-24T05:44:57.627Z,14.16
2022-09-24T05:48:03.059Z,14.52
2022-09-24T05:51:08.597Z,14.66
2022-09-24T05:54:14.881Z,14.79
2022-09-24T05:57:21.670Z,15.02
2022-09-24T06:00:27.955Z,15.29
2022-09-24T06:03:36.679Z,15.39
2022-09-24T06:06:42.279Z,15.68
2022-09-24T06:09:48.630Z,15.90
2022-09-24T06:12:57.186Z,15.97
2022-09-24T06:16:03.199Z,16.21
2022-09-24T06:19:08.323Z,16.36
2022-09-24T06:22:13.691Z,16.49
2022-09-24T06:25:22.361Z,16.61
2022-09-24T06:28:27.678Z,16.66
2022-09-24T06:31:33.524Z,16.75
2022-09-24T06:34:38.895Z,16.87
2022-09-24T06:37:38.384Z,16.93
2022-09-24T06:40:44.003Z,16.98
2022-09-24T06:43:50.669Z,17.05
2022-09-24T06:46:57.359Z,17.02
2022-09-24T06:50:03.912Z,16.77
2022-09-24T06:53:09.815Z,16.76
2022-09-24T06:56:15.441Z,16.76
2022-09-24T06:59:20.938Z,16.55
2022-09-24T07:02:26.635Z,16.36
2022-09-24T07:05:32.598Z,16.26
2022-09-24T07:08:38.616Z,16.14
2022-09-24T07:11:44.564Z,16.20
2022-09-24T07:14:49.634Z,16.28
2022-09-24T07:17:55.765Z,16.21
2022-09-24T07:21:05.916Z,16.10
2022-09-24T07:24:12.080Z,16.12
2022-09-24T07:27:21.363Z,16.24
2022-09-24T07:30:27.016Z,16.48
2022-09-24T07:33:33.656Z,16.76
2022-09-24T07:36:41.323Z,16.89
2022-09-24T07:39:47.034Z,17.00
2022-09-24T07:42:55.329Z,17.13
2022-09-24T07:46:02.551Z,17.43
2022-09-24T07:49:08.969Z,17.73
2022-09-24T07:52:14.622Z,17.86
2022-09-24T07:55:20.693Z,18.11
2022-09-24T07:58:29.066Z,18.02
2022-09-24T08:01:34.137Z,18.15
2022-09-24T08:04:39.552Z,18.28
2022-09-24T08:07:46.127Z,18.25
2022-09-24T08:10:52.768Z,18.24
2022-09-24T08:13:59.639Z,18.21
2022-09-24T08:17:05.642Z,18.31
2022-09-24T08:20:12.149Z,18.44
2022-09-24T08:23:22.822Z,18.31
2022-09-24T08:26:29.622Z,18.33
2022-09-24T08:29:35.219Z,18.50
2022-09-24T08:32:39.905Z,18.50
2022-09-24T08:35:47.732Z,18.74
2022-09-24T08:38:52.668Z,18.80
2022-09-24T08:42:14.563Z,18.92
2022-09-24T08:45:39.666Z,18.96
2022-09-24T08:48:47.053Z,19.15
2022-09-24T08:52:01.224Z,19.13
2022-09-24T08:55:08.991Z,19.24
2022-09-24T08:58:22.104Z,19.28
2022-09-24T09:01:28.719Z,19.19
2022-09-24T09:04:38.828Z,19.21
2022-09-24T09:07:58.353Z,19.22
2022-09-24T09:11:09.116Z,19.29
2022-09-24T09:14:28.050Z,19.34
2022-09-24T09:17:57.189Z,19.40
2022-09-24T09:21:04.506Z,19.50
2022-09-24T09:24:11.633Z,19.32
2022-09-24T09:27:16.964Z,19.31
2022-09-24T09:30:26.651Z,19.44
2022-09-24T09:33:52.021Z,19.61
2022-09-24T09:37:35.688Z,19.60
2022-09-24T09:40:58.588Z,19.57
2022-09-24T09:44:04.874Z,19.49
2022-09-24T09:47:36.537Z,19.53
2022-09-24T09:50:56.710Z,19.48
2022-09-24T09:54:16.503Z,19.67
2022-09-24T09:57:25.479Z,19.65
2022-09-24T10:00:48.599Z,19.62
2022-09-24T10:04:03.431Z,19.64
2022-09-24T10:07:27.691Z,19.56
2022-09-24T10:10:35.295Z,19.37
2022-09-24T10:13:41.934Z,19.46
2022-09-24T10:16:58.574Z,19.53
2022-09-24T10:20:04.353Z,19.44
2022-09-24T10:23:22.006Z,19.35
2022-09-24T10:26:27.895Z,19.30
2022-09-24T10:30:01.218Z,19.44
2022-09-24T10:33:15.717Z,19.48
2022-09-24T10:36:24.584Z,19.58
2022-09-24T10:39:31.279Z,19.76
2022-09-24T10:42:45.149Z,19.88
2022-09-24T10:46:24.380Z,19.90
2022-09-24T10:49:53.458Z,20.03
2022-09-24T10:53:08.061Z,20.03
2022-09-24T10:56:46.540Z,20.01
2022-09-24T10:59:58.513Z,20.09
2022-09-24T11:03:24.768Z,20.04
2022-09-24T11:06:51.421Z,20.10
2022-09-24T11:10:20.157Z,20.28
2022-09-24T11:13:37.136Z,20.31
2022-09-24T11:16:58.999Z,20.25
2022-09-24T11:20:22.414Z,20.15
2022-09-24T11:23:51.109Z,20.17
2022-09-24T11:27:23.250Z,20.05
2022-09-24T11:30:36.631Z,20.08
2022-09-24T11:34:06.166Z,19.85
2022-09-24T11:37:44.887Z,19.69
2022-09-24T11:41:20.746Z,19.48
2022-09-24T11:44:58.885Z,18.61
2022-09-24T11:48:10.447Z,17.70
2022-09-24T11:51:25.355Z,16.78
2022-09-24T11:54:41.816Z,16.33
2022-09-24T11:58:00.246Z,15.89
2022-09-24T12:01:22.390Z,15.69
2022-09-24T12:04:32.873Z,15.54
2022-09-24T12:07:47.227Z,15.43
2022-09-24T12:10:58.210Z,15.33
2022-09-24T12:14:29.224Z,15.35
2022-09-24T12:17:51.716Z,15.11
2022-09-24T12:21:13.655Z,15.36
2022-09-24T12:24:30.152Z,15.51
2022-09-24T12:27:42.132Z,15.77
2022-09-24T12:31:15.155Z,16.21
2022-09-24T12:34:44.373Z,16.50
2022-09-24T12:37:54.766Z,16.81
2022-09-24T12:41:13.814Z,17.06
2022-09-24T12:44:31.547Z,17.25
2022-09-24T12:47:47.332Z,17.29
2022-09-24T12:50:54.104Z,17.34
2022-09-24T12:54:02.097Z,17.18
2022-09-24T12:57:02.221Z,17.18
2022-09-24T13:00:12.720Z,17.21
2022-09-24T13:03:19.294Z,17.26
2022-09-24T13:06:51.810Z,17.20
2022-09-24T13:09:57.112Z,16.89
2022-09-24T13:13:04.922Z,16.73
2022-09-24T13:16:18.977Z,16.40
2022-09-24T13:19:48.684Z,16.17
2022-09-24T13:22:55.129Z,16.01
2022-09-24T13:26:18.198Z,15.90
2022-09-24T13:29:38.980Z,15.88
2022-09-24T13:32:48.482Z,15.91
2022-09-24T13:36:12.871Z,15.86
2022-09-24T13:39:32.412Z,15.94
2022-09-24T13:42:54.835Z,15.88
2022-09-24T13:46:00.674Z,16.02
2022-09-24T13:49:13.372Z,16.17
2022-09-24T13:52:45.993Z,16.24
2022-09-24T13:55:56.643Z,15.93
2022-09-24T13:59:02.515Z,15.96
2022-09-24T14:02:09.028Z,16.16
2022-09-24T14:05:16.704Z,16.26
2022-09-24T14:08:25.797Z,16.31
2022-09-24T14:11:36.881Z,16.36
2022-09-24T14:14:49.281Z,16.23
2022-09-24T14:17:54.772Z,16.22
2022-09-24T14:21:00.259Z,16.36
2022-09-24T14:24:10.483Z,16.26
2022-09-24T14:27:26.464Z,16.40
2022-09-24T14:30:40.310Z,16.38
2022-09-24T14:33:47.234Z,16.22
2022-09-24T14:36:53.219Z,16.19
2022-09-24T14:40:02.692Z,16.22
2022-09-24T14:43:13.378Z,16.23
2022-09-24T14:46:21.775Z,16.19
2022-09-24T14:49:40.414Z,16.24
2022-09-24T14:52:50.352Z,16.04
2022-09-24T14:55:57.055Z,15.91
2022-09-24T14:59:03.709Z,15.81
2022-09-24T15:02:41.662Z,15.71
2022-09-24T15:05:47.207Z,15.66
2022-09-24T15:08:54.368Z,15.50
2022-09-24T15:12:01.775Z,15.40
2022-09-24T15:15:10.453Z,15.34
2022-09-24T15:18:17.392Z,15.29
2022-09-24T15:21:23.817Z,15.09
2022-09-24T15:24:31.724Z,15.06
2022-09-24T15:27:41.488Z,14.88
2022-09-24T15:30:47.163Z,14.86
2022-09-24T15:33:54.632Z,14.82
2022-09-24T15:37:02.230Z,14.67
2022-09-24T15:40:13.736Z,14.65
2022-09-24T15:43:18.594Z,14.72
2022-09-24T15:46:24.700Z,14.67
2022-09-24T15:49:30.138Z,14.64
2022-09-24T15:52:42.986Z,14.63
2022-09-24T15:55:50.845Z,14.62
2022-09-24T15:58:57.508Z,14.47
2022-09-24T16:02:06.254Z,14.53
2022-09-24T16:05:11.236Z,14.53
2022-09-24T16:08:17.048Z,14.59
2022-09-24T16:11:23.738Z,14.39
2022-09-24T16:14:29.495Z,14.43
2022-09-24T16:17:36.268Z,14.34
2022-09-24T16:20:42.764Z,14.29
2022-09-24T16:23:48.726Z,14.30
2022-09-24T16:26:55.123Z,14.41
2022-09-24T16:30:01.161Z,14.31
2022-09-24T16:33:07.897Z,14.11
2022-09-24T16:36:24.519Z,14.17
2022-09-24T16:39:23.049Z,14.14
2022-09-24T16:42:31.499Z,14.04
2022-09-24T16:45:37.566Z,14.04
2022-09-24T16:48:42.565Z,14.05
2022-09-24T16:51:48.061Z,14.05
2022-09-24T16:54:54.294Z,13.95
2022-09-24T16:57:59.960Z,13.95
2022-09-24T17:01:06.746Z,13.96
2022-09-24T17:04:14.474Z,13.99
2022-09-24T17:07:21.412Z,14.02
2022-09-24T17:10:28.151Z,14.10
2022-09-24T17:13:33.982Z,14.11
2022-09-24T17:16:40.684Z,14.16
2022-09-24T17:19:47.037Z,14.08
2022-09-24T17:22:56.210Z,14.24
2022-09-24T17:26:03.348Z,14.29
2022-09-24T17:29:08.758Z,14.31
2022-09-24T17:32:15.054Z,14.28
2022-09-24T17:35:21.285Z,14.27
2022-09-24T17:38:26.762Z,14.28
2022-09-24T17:41:31.950Z,14.29
2022-09-24T17:44:38.608Z,14.27
2022-09-24T17:47:38.510Z,14.25
2022-09-24T17:50:31.605Z,14.16
2022-09-24T17:53:38.183Z,14.04
2022-09-24T17:56:47.565Z,13.96
2022-09-24T17:59:55.483Z,13.89
2022-09-24T18:03:02.958Z,14.01
2022-09-24T18:06:18.589Z,13.99
2022-09-24T18:09:23.904Z,13.88
2022-09-24T18:12:30.412Z,13.80
2022-09-24T18:15:37.504Z,13.72
2022-09-24T18:18:42.934Z,13.64
2022-09-24T18:21:48.307Z,13.55
2022-09-24T18:24:54.098Z,13.50
2022-09-24T18:27:59.086Z,13.50
2022-09-24T18:31:06.838Z,13.29
2022-09-24T18:34:15.171Z,13.32
2022-09-24T18:37:21.118Z,13.38
2022-09-24T18:40:27.566Z,13.30
2022-09-24T18:43:33.389Z,13.16
2022-09-24T18:46:41.038Z,13.07
2022-09-24T18:49:46.580Z,13.12
2022-09-24T18:52:52.356Z,13.05
2022-09-24T18:55:58.080Z,12.98
2022-09-24T18:59:09.399Z,12.87
2022-09-24T19:02:13.438Z,12.89
2022-09-24T19:05:21.925Z,12.91
2022-09-24T19:08:27.684Z,12.87
2022-09-24T19:11:34.718Z,12.77
2022-09-24T19:14:40.338Z,12.85
2022-09-24T19:17:46.904Z,12.77
2022-09-24T19:20:56.495Z,12.74
2022-09-24T19:24:04.115Z,12.83
2022-09-24T19:27:10.986Z,12.75
2022-09-24T19:30:17.722Z,12.72
2022-09-24T19:33:23.758Z,12.67
2022-09-24T19:36:29.467Z,12.65
2022-09-24T19:39:35.838Z,12.55
2022-09-24T19:42:41.548Z,12.53
2022-09-24T19:45:47.151Z,12.50
2022-09-24T19:48:54.966Z,12.59
2022-09-24T19:52:01.040Z,12.65
2022-09-24T19:55:06.479Z,12.65
2022-09-24T19:58:12.561Z,12.55
2022-09-24T20:01:19.464Z,12.61
2022-09-24T20:04:26.940Z,12.76
2022-09-24T20:07:32.365Z,12.78
2022-09-24T20:10:38.031Z,12.68
2022-09-24T20:13:44.970Z,12.54
2022-09-24T20:16:51.955Z,12.57
2022-09-24T20:19:57.574Z,12.51
2022-09-24T20:23:02.652Z,12.47
2022-09-24T20:26:25.908Z,12.67
2022-09-24T20:29:32.349Z,12.78
2022-09-24T20:32:38.675Z,12.74
2022-09-24T20:35:44.713Z,12.70
2022-09-24T20:38:49.760Z,12.64
2022-09-24T20:41:56.875Z,12.73
2022-09-24T20:45:06.114Z,12.70
2022-09-24T20:48:10.103Z,12.75
2022-09-24T20:51:15.837Z,12.75
2022-09-24T20:54:22.056Z,12.81
2022-09-24T20:57:28.011Z,12.73
2022-09-24T21:00:34.971Z,12.72
2022-09-24T21:03:44.793Z,12.74
2022-09-24T21:06:51.864Z,12.73
2022-09-24T21:09:57.141Z,12.71
2022-09-24T21:13:03.563Z,12.73
2022-09-24T21:16:13.464Z,12.74
2022-09-24T21:19:19.183Z,12.73
2022-09-24T21:22:24.581Z,12.75
2022-09-24T21:25:52.831Z,12.81
2022-09-24T21:28:37.004Z,12.83
2022-09-24T21:31:44.254Z,12.87
2022-09-24T21:34:50.444Z,12.94
2022-09-24T21:37:55.614Z,12.97
2022-09-24T21:41:09.095Z,13.01
2022-09-24T21:44:15.043Z,12.83
2022-09-24T21:47:22.051Z,12.97
2022-09-24T21:50:28.159Z,13.09
2022-09-24T21:53:33.848Z,13.15
2022-09-24T21:56:39.020Z,13.05
2022-09-24T22:00:02.433Z,13.11
2022-09-24T22:03:08.813Z,12.97
2022-09-24T22:06:17.309Z,13.00
2022-09-24T22:09:23.412Z,12.93
2022-09-24T22:12:29.517Z,12.07
2022-09-24T22:15:34.951Z,12.01
2022-09-24T22:18:42.586Z,12.05
2022-09-24T22:21:48.164Z,12.06
2022-09-24T22:24:54.432Z,11.85
2022-09-24T22:28:01.203Z,11.79
2022-09-24T22:31:08.983Z,11.85
2022-09-24T22:34:33.329Z,11.78
2022-09-24T22:37:39.449Z,11.73
2022-09-24T22:40:45.637Z,11.74
2022-09-24T22:43:51.291Z,11.68
2022-09-24T22:46:51.983Z,11.47
2022-09-24T22:49:38.427Z,11.41
2022-09-24T22:52:30.798Z,11.42
2022-09-24T22:55:36.411Z,11.49
2022-09-24T22:58:42.415Z,11.56
2022-09-24T23:01:51.573Z,11.62
2022-09-24T23:04:58.058Z,11.40
2022-09-24T23:08:04.633Z,11.47
2022-09-24T23:11:10.899Z,11.50
2022-09-24T23:14:20.073Z,11.57
2022-09-24T23:17:25.971Z,11.57
2022-09-24T23:20:32.233Z,11.56
2022-09-24T23:23:39.165Z,11.48
2022-09-24T23:26:45.731Z,11.35
2022-09-24T23:29:53.006Z,11.43
2022-09-24T23:32:59.125Z,11.36
2022-09-24T23:36:11.641Z,11.32
2022-09-24T23:39:16.963Z,11.18
2022-09-24T23:42:23.687Z,11.23
2022-09-24T23:45:30.072Z,11.35
2022-09-24T23:48:36.788Z,11.20
2022-09-24T23:51:42.722Z,11.21
2022-09-24T23:54:47.891Z,11.24
2022-09-24T23:57:57.413Z,11.31
